메인 페이지
METAR-TAF:

METAR-TAF

공항 :

에르주룸, 터키

위도: 39-55N, 경도: 041-16E, 고도: 1756m

현재 날씨관측

예보는 46분 전, 09:20시(UTC)에 발표되었습니다.
여러 방향의 바람 2kt
온도 -4°C
습도 100%
기압 1016 hPa
시정: 6000m
고도 4000ft 상공 구름 보통

METAR: LTCE 120920Z VRB02KT 6000 SCT040 M04/M04 Q1016 BECMG TL1000 08012KT

시각: 13:06 (10:06 UTC)

예보

예보는 5 시간 26분 전, 04:40시(UTC)에 발표되었습니다.
예보 대상 시간: 12일 06시부터 13일 06시까지 (UTC)
여러 방향의 바람 2kt
시정: 0200m
고도 100ft 상공
어는 안개
전환 중
12일 06시부터 12일 08시까지 (UTC)
시정: 1600m
곳곳에 안개
전환 중
12일 08시부터 12일 10시까지 (UTC)
12kt
시정: 4500m
고도 4000ft 상공 구름 보통
박무
전환 중
12일 10시부터 12일 12시까지 (UTC)
시정: 6000m
전환 중
12일 12시부터 12일 15시까지 (UTC)
고도 3500ft 상공 구름 많음
고도 7000ft 상공 구름 많음
일시적
12일 18시부터 12일 21시까지 (UTC)
시정: 3200m
약한눈, 날린눈
일시적
12일 21시부터 12일 24시까지 (UTC)
시정: 3200m
약한눈, 날린눈

TAF: LTCE 120440Z 1206/1306 VRB02KT 0200 FZFG VV001 BECMG 1206/1208 1600 BCFG NSC BECMG 1208/1210 08012KT 4500 BR SCT040 BECMG 1210/1212 6000 BECMG 1212/1215 BKN035 BKN070 TEMPO 1218/1221 3200 -SN BLSN TEMPO 1221/1224 3200 -SN BLSN

4,000개 이상의 공항 관측 자료 및 예보 (METAR 및 TAF 보고).

지도상에서 검색 가능한 기상관측소가 노란 점과 빨간 점으로 표시되어 있습니다.

기상관측소 명을 보려면 표시 위로 마우스를 이동하세요.

날씨 관측과 예보를 보려면 클릭하세요.

지도 변경 : 확대하려면 엑스 표시가 있는 녹색 버튼, 축소하려면 빼기 표시가 있는 녹색 버튼, 다음 페이지의 지도를 보려면 녹색 화살표를 클릭하세요.


METAR-TAF: